sensor_id;sensor_type;location;lat;lon;timestamp;P1;durP1;ratioP1;P2;durP2;ratioP2
15258;SDS011;34462;51.368;12.364;2023-04-25T00:01:03;6.23;;;4.33;;
15258;SDS011;34462;51.368;12.364;2023-04-25T00:03:31;7.83;;;4.70;;
15258;SDS011;34462;51.368;12.364;2023-04-25T00:06:01;5.20;;;4.23;;
15258;SDS011;34462;51.368;12.364;2023-04-25T00:08:29;5.93;;;4.50;;
15258;SDS011;34462;51.368;12.364;2023-04-25T00:10:58;5.27;;;4.77;;
15258;SDS011;34462;51.368;12.364;2023-04-25T00:13:26;7.63;;;4.10;;
15258;SDS011;34462;51.368;12.364;2023-04-25T00:15:55;4.60;;;4.20;;
15258;SDS011;34462;51.368;12.364;2023-04-25T00:18:24;5.77;;;4.83;;
15258;SDS011;34462;51.368;12.364;2023-04-25T00:20:55;5.70;;;5.00;;
15258;SDS011;34462;51.368;12.364;2023-04-25T00:23:24;6.40;;;5.23;;
15258;SDS011;34462;51.368;12.364;2023-04-25T00:25:53;6.13;;;4.67;;
15258;SDS011;34462;51.368;12.364;2023-04-25T00:28:21;6.80;;;4.97;;
15258;SDS011;34462;51.368;12.364;2023-04-25T00:30:49;5.17;;;4.67;;
15258;SDS011;34462;51.368;12.364;2023-04-25T00:33:17;5.87;;;4.67;;
15258;SDS011;34462;51.368;12.364;2023-04-25T00:35:45;4.97;;;4.40;;
15258;SDS011;34462;51.368;12.364;2023-04-25T00:38:13;7.13;;;5.07;;
15258;SDS011;34462;51.368;12.364;2023-04-25T00:40:43;9.00;;;4.70;;
15258;SDS011;34462;51.368;12.364;2023-04-25T00:43:11;7.57;;;4.83;;
15258;SDS011;34462;51.368;12.364;2023-04-25T00:45:39;8.40;;;4.90;;
15258;SDS011;34462;51.368;12.364;2023-04-25T00:48:07;6.00;;;5.23;;
15258;SDS011;34462;51.368;12.364;2023-04-25T00:50:36;6.20;;;4.80;;
15258;SDS011;34462;51.368;12.364;2023-04-25T00:53:04;6.20;;;4.80;;
15258;SDS011;34462;51.368;12.364;2023-04-25T00:55:33;6.20;;;5.30;;
15258;SDS011;34462;51.368;12.364;2023-04-25T00:58:03;6.10;;;5.23;;
15258;SDS011;34462;51.368;12.364;2023-04-25T01:00:31;6.33;;;5.20;;
15258;SDS011;34462;51.368;12.364;2023-04-25T01:03:01;6.43;;;5.40;;
15258;SDS011;34462;51.368;12.364;2023-04-25T01:05:30;7.27;;;5.77;;
15258;SDS011;34462;51.368;12.364;2023-04-25T01:07:59;6.93;;;5.53;;
15258;SDS011;34462;51.368;12.364;2023-04-25T01:10:27;8.37;;;5.83;;
15258;SDS011;34462;51.368;12.364;2023-04-25T01:12:55;7.97;;;5.53;;
15258;SDS011;34462;51.368;12.364;2023-04-25T01:15:26;6.40;;;5.30;;
15258;SDS011;34462;51.368;12.364;2023-04-25T01:17:54;8.03;;;5.60;;
15258;SDS011;34462;51.368;12.364;2023-04-25T01:20:27;6.30;;;5.57;;
15258;SDS011;34462;51.368;12.364;2023-04-25T01:23:00;6.80;;;5.50;;
15258;SDS011;34462;51.368;12.364;2023-04-25T01:25:30;8.27;;;5.87;;
15258;SDS011;34462;51.368;12.364;2023-04-25T01:27:58;7.87;;;5.63;;
15258;SDS011;34462;51.368;12.364;2023-04-25T01:30:27;7.07;;;6.37;;
15258;SDS011;34462;51.368;12.364;2023-04-25T01:32:56;7.00;;;5.97;;
15258;SDS011;34462;51.368;12.364;2023-04-25T01:35:24;7.00;;;6.00;;
15258;SDS011;34462;51.368;12.364;2023-04-25T01:37:53;6.90;;;5.70;;
15258;SDS011;34462;51.368;12.364;2023-04-25T01:40:22;6.40;;;5.80;;
15258;SDS011;34462;51.368;12.364;2023-04-25T01:42:52;9.47;;;5.90;;
15258;SDS011;34462;51.368;12.364;2023-04-25T01:45:20;8.70;;;6.03;;
15258;SDS011;34462;51.368;12.364;2023-04-25T01:47:49;7.93;;;5.53;;
15258;SDS011;34462;51.368;12.364;2023-04-25T01:50:17;7.00;;;5.70;;
15258;SDS011;34462;51.368;12.364;2023-04-25T01:52:46;8.33;;;5.63;;
15258;SDS011;34462;51.368;12.364;2023-04-25T01:55:15;6.13;;;5.53;;
15258;SDS011;34462;51.368;12.364;2023-04-25T01:57:45;6.77;;;6.07;;
15258;SDS011;34462;51.368;12.364;2023-04-25T02:00:13;7.47;;;5.47;;
15258;SDS011;34462;51.368;12.364;2023-04-25T02:02:41;7.57;;;5.50;;
15258;SDS011;34462;51.368;12.364;2023-04-25T02:05:10;6.67;;;5.20;;
15258;SDS011;34462;51.368;12.364;2023-04-25T02:07:38;6.90;;;5.40;;
15258;SDS011;34462;51.368;12.364;2023-04-25T02:10:06;7.07;;;5.77;;
15258;SDS011;34462;51.368;12.364;2023-04-25T02:12:35;6.63;;;5.10;;
15258;SDS011;34462;51.368;12.364;2023-04-25T02:15:06;7.67;;;6.00;;
15258;SDS011;34462;51.368;12.364;2023-04-25T02:17:35;7.43;;;5.53;;
15258;SDS011;34462;51.368;12.364;2023-04-25T02:20:04;8.73;;;5.87;;
15258;SDS011;34462;51.368;12.364;2023-04-25T02:22:33;9.10;;;6.40;;
15258;SDS011;34462;51.368;12.364;2023-04-25T02:25:01;7.80;;;6.53;;
15258;SDS011;34462;51.368;12.364;2023-04-25T02:27:31;8.17;;;6.17;;
15258;SDS011;34462;51.368;12.364;2023-04-25T02:29:59;9.50;;;6.73;;
15258;SDS011;34462;51.368;12.364;2023-04-25T02:32:28;8.97;;;6.10;;
15258;SDS011;34462;51.368;12.364;2023-04-25T02:34:57;9.43;;;6.47;;
15258;SDS011;34462;51.368;12.364;2023-04-25T02:37:29;7.53;;;6.27;;
15258;SDS011;34462;51.368;12.364;2023-04-25T02:39:58;7.53;;;6.10;;
15258;SDS011;34462;51.368;12.364;2023-04-25T02:42:26;7.60;;;6.80;;
15258;SDS011;34462;51.368;12.364;2023-04-25T02:44:55;8.67;;;6.10;;
15258;SDS011;34462;51.368;12.364;2023-04-25T02:47:23;7.57;;;6.73;;
15258;SDS011;34462;51.368;12.364;2023-04-25T02:49:53;8.63;;;6.70;;
15258;SDS011;34462;51.368;12.364;2023-04-25T02:52:21;9.37;;;6.70;;
15258;SDS011;34462;51.368;12.364;2023-04-25T02:54:49;9.10;;;7.07;;
15258;SDS011;34462;51.368;12.364;2023-04-25T02:57:17;8.97;;;6.60;;
15258;SDS011;34462;51.368;12.364;2023-04-25T02:59:45;9.83;;;6.80;;
15258;SDS011;34462;51.368;12.364;2023-04-25T03:02:13;7.33;;;6.53;;
15258;SDS011;34462;51.368;12.364;2023-04-25T03:04:42;9.27;;;6.70;;
15258;SDS011;34462;51.368;12.364;2023-04-25T03:07:11;8.90;;;6.53;;
15258;SDS011;34462;51.368;12.364;2023-04-25T03:09:39;7.53;;;6.00;;
15258;SDS011;34462;51.368;12.364;2023-04-25T03:12:07;8.53;;;6.27;;
15258;SDS011;34462;51.368;12.364;2023-04-25T03:14:36;8.00;;;6.30;;
15258;SDS011;34462;51.368;12.364;2023-04-25T03:17:04;10.40;;;6.60;;
15258;SDS011;34462;51.368;12.364;2023-04-25T03:19:32;7.67;;;5.87;;
15258;SDS011;34462;51.368;12.364;2023-04-25T03:22:00;10.07;;;6.53;;
15258;SDS011;34462;51.368;12.364;2023-04-25T03:24:30;9.83;;;7.43;;
15258;SDS011;34462;51.368;12.364;2023-04-25T03:26:58;9.00;;;6.50;;
15258;SDS011;34462;51.368;12.364;2023-04-25T03:29:26;8.90;;;6.77;;
15258;SDS011;34462;51.368;12.364;2023-04-25T03:31:54;9.40;;;6.30;;
15258;SDS011;34462;51.368;12.364;2023-04-25T03:34:23;8.93;;;6.27;;
15258;SDS011;34462;51.368;12.364;2023-04-25T03:36:52;9.33;;;6.10;;
15258;SDS011;34462;51.368;12.364;2023-04-25T03:39:20;8.60;;;5.93;;
15258;SDS011;34462;51.368;12.364;2023-04-25T03:41:49;9.93;;;6.53;;
15258;SDS011;34462;51.368;12.364;2023-04-25T03:44:18;10.00;;;7.37;;
15258;SDS011;34462;51.368;12.364;2023-04-25T03:46:46;10.93;;;7.60;;
15258;SDS011;34462;51.368;12.364;2023-04-25T03:49:14;8.60;;;6.70;;
15258;SDS011;34462;51.368;12.364;2023-04-25T03:51:44;8.10;;;6.10;;
15258;SDS011;34462;51.368;12.364;2023-04-25T03:54:13;10.43;;;6.90;;
15258;SDS011;34462;51.368;12.364;2023-04-25T03:56:41;9.20;;;6.63;;
15258;SDS011;34462;51.368;12.364;2023-04-25T03:59:10;11.23;;;6.57;;
15258;SDS011;34462;51.368;12.364;2023-04-25T04:01:38;8.57;;;6.77;;
15258;SDS011;34462;51.368;12.364;2023-04-25T04:04:06;10.60;;;6.50;;
15258;SDS011;34462;51.368;12.364;2023-04-25T04:06:35;10.03;;;7.20;;
15258;SDS011;34462;51.368;12.364;2023-04-25T04:09:04;10.37;;;7.27;;
15258;SDS011;34462;51.368;12.364;2023-04-25T04:11:36;8.70;;;6.50;;
15258;SDS011;34462;51.368;12.364;2023-04-25T04:14:04;9.07;;;6.43;;
15258;SDS011;34462;51.368;12.364;2023-04-25T04:16:34;9.63;;;6.93;;
15258;SDS011;34462;51.368;12.364;2023-04-25T04:19:02;10.80;;;6.50;;
15258;SDS011;34462;51.368;12.364;2023-04-25T04:21:30;7.73;;;6.10;;
15258;SDS011;34462;51.368;12.364;2023-04-25T04:23:59;8.10;;;6.20;;
15258;SDS011;34462;51.368;12.364;2023-04-25T04:26:28;11.17;;;6.07;;
15258;SDS011;34462;51.368;12.364;2023-04-25T04:28:58;10.63;;;5.80;;
15258;SDS011;34462;51.368;12.364;2023-04-25T04:31:26;7.47;;;5.47;;
15258;SDS011;34462;51.368;12.364;2023-04-25T04:33:56;8.40;;;6.03;;
15258;SDS011;34462;51.368;12.364;2023-04-25T04:36:24;8.23;;;5.97;;
15258;SDS011;34462;51.368;12.364;2023-04-25T04:38:52;8.63;;;5.20;;
15258;SDS011;34462;51.368;12.364;2023-04-25T04:41:22;8.87;;;5.73;;
15258;SDS011;34462;51.368;12.364;2023-04-25T04:43:50;9.03;;;5.90;;
15258;SDS011;34462;51.368;12.364;2023-04-25T04:46:19;9.47;;;5.87;;
15258;SDS011;34462;51.368;12.364;2023-04-25T04:48:47;7.07;;;5.23;;
15258;SDS011;34462;51.368;12.364;2023-04-25T04:51:17;9.17;;;5.87;;
15258;SDS011;34462;51.368;12.364;2023-04-25T04:53:45;7.87;;;5.40;;
15258;SDS011;34462;51.368;12.364;2023-04-25T04:56:14;6.37;;;5.17;;
15258;SDS011;34462;51.368;12.364;2023-04-25T04:58:42;9.77;;;5.57;;
15258;SDS011;34462;51.368;12.364;2023-04-25T05:01:10;8.77;;;5.47;;
15258;SDS011;34462;51.368;12.364;2023-04-25T05:03:39;8.50;;;6.60;;
15258;SDS011;34462;51.368;12.364;2023-04-25T05:06:07;6.90;;;5.40;;
15258;SDS011;34462;51.368;12.364;2023-04-25T05:08:37;11.90;;;6.73;;
15258;SDS011;34462;51.368;12.364;2023-04-25T05:11:05;11.00;;;6.60;;
15258;SDS011;34462;51.368;12.364;2023-04-25T05:13:34;7.30;;;5.90;;
15258;SDS011;34462;51.368;12.364;2023-04-25T05:16:02;7.70;;;6.60;;
15258;SDS011;34462;51.368;12.364;2023-04-25T05:18:31;8.70;;;6.23;;
15258;SDS011;34462;51.368;12.364;2023-04-25T05:20:59;15.03;;;9.50;;
15258;SDS011;34462;51.368;12.364;2023-04-25T05:23:27;11.37;;;6.87;;
15258;SDS011;34462;51.368;12.364;2023-04-25T05:25:59;8.40;;;5.80;;
15258;SDS011;34462;51.368;12.364;2023-04-25T05:28:28;9.17;;;5.77;;
15258;SDS011;34462;51.368;12.364;2023-04-25T05:30:56;7.70;;;6.03;;
15258;SDS011;34462;51.368;12.364;2023-04-25T05:33:25;8.40;;;5.83;;
15258;SDS011;34462;51.368;12.364;2023-04-25T05:35:53;7.37;;;5.43;;
15258;SDS011;34462;51.368;12.364;2023-04-25T05:38:21;8.00;;;5.87;;
15258;SDS011;34462;51.368;12.364;2023-04-25T05:40:51;12.30;;;6.63;;
15258;SDS011;34462;51.368;12.364;2023-04-25T05:43:21;8.50;;;6.20;;
15258;SDS011;34462;51.368;12.364;2023-04-25T05:45:49;12.37;;;6.03;;
15258;SDS011;34462;51.368;12.364;2023-04-25T05:48:17;9.97;;;6.23;;
15258;SDS011;34462;51.368;12.364;2023-04-25T05:50:45;9.07;;;6.40;;
15258;SDS011;34462;51.368;12.364;2023-04-25T05:53:13;9.57;;;6.20;;
15258;SDS011;34462;51.368;12.364;2023-04-25T05:55:42;11.10;;;6.17;;
15258;SDS011;34462;51.368;12.364;2023-04-25T05:58:10;9.87;;;5.93;;
15258;SDS011;34462;51.368;12.364;2023-04-25T06:00:39;9.17;;;6.30;;
15258;SDS011;34462;51.368;12.364;2023-04-25T06:03:08;9.00;;;6.20;;
15258;SDS011;34462;51.368;12.364;2023-04-25T06:05:37;8.30;;;6.07;;
15258;SDS011;34462;51.368;12.364;2023-04-25T06:08:05;10.70;;;6.03;;
15258;SDS011;34462;51.368;12.364;2023-04-25T06:10:33;8.47;;;5.90;;
15258;SDS011;34462;51.368;12.364;2023-04-25T06:13:01;10.13;;;6.30;;
15258;SDS011;34462;51.368;12.364;2023-04-25T06:15:31;7.17;;;5.87;;
15258;SDS011;34462;51.368;12.364;2023-04-25T06:18:00;10.67;;;6.53;;
15258;SDS011;34462;51.368;12.364;2023-04-25T06:20:29;10.57;;;6.53;;
15258;SDS011;34462;51.368;12.364;2023-04-25T06:22:57;6.63;;;5.37;;
15258;SDS011;34462;51.368;12.364;2023-04-25T06:25:25;7.77;;;5.80;;
15258;SDS011;34462;51.368;12.364;2023-04-25T06:27:53;10.17;;;5.10;;
15258;SDS011;34462;51.368;12.364;2023-04-25T06:30:21;9.00;;;5.90;;
15258;SDS011;34462;51.368;12.364;2023-04-25T06:32:51;10.20;;;5.70;;
15258;SDS011;34462;51.368;12.364;2023-04-25T06:35:21;8.20;;;5.77;;
15258;SDS011;34462;51.368;12.364;2023-04-25T06:37:49;8.03;;;5.63;;
15258;SDS011;34462;51.368;12.364;2023-04-25T06:40:18;6.77;;;4.93;;
15258;SDS011;34462;51.368;12.364;2023-04-25T06:42:46;7.87;;;5.50;;
15258;SDS011;34462;51.368;12.364;2023-04-25T06:45:14;7.17;;;5.27;;
15258;SDS011;34462;51.368;12.364;2023-04-25T06:47:42;7.40;;;4.80;;
15258;SDS011;34462;51.368;12.364;2023-04-25T06:50:11;7.77;;;5.13;;
15258;SDS011;34462;51.368;12.364;2023-04-25T06:52:40;8.83;;;5.53;;
15258;SDS011;34462;51.368;12.364;2023-04-25T06:55:09;8.50;;;5.57;;
15258;SDS011;34462;51.368;12.364;2023-04-25T06:57:37;7.37;;;5.47;;
15258;SDS011;34462;51.368;12.364;2023-04-25T07:00:05;6.13;;;5.07;;
15258;SDS011;34462;51.368;12.364;2023-04-25T07:02:35;8.97;;;5.50;;
15258;SDS011;34462;51.368;12.364;2023-04-25T07:05:04;6.87;;;5.00;;
15258;SDS011;34462;51.368;12.364;2023-04-25T07:07:32;6.43;;;5.37;;
15258;SDS011;34462;51.368;12.364;2023-04-25T07:10:02;8.23;;;5.30;;
15258;SDS011;34462;51.368;12.364;2023-04-25T07:12:31;11.53;;;5.80;;
15258;SDS011;34462;51.368;12.364;2023-04-25T07:14:59;9.33;;;5.30;;
15258;SDS011;34462;51.368;12.364;2023-04-25T07:17:32;8.27;;;5.40;;
15258;SDS011;34462;51.368;12.364;2023-04-25T07:20:00;6.67;;;5.10;;
15258;SDS011;34462;51.368;12.364;2023-04-25T07:22:32;8.43;;;4.90;;
15258;SDS011;34462;51.368;12.364;2023-04-25T07:25:01;9.40;;;5.50;;
15258;SDS011;34462;51.368;12.364;2023-04-25T07:27:30;5.83;;;4.83;;
15258;SDS011;34462;51.368;12.364;2023-04-25T07:29:58;9.50;;;5.57;;
15258;SDS011;34462;51.368;12.364;2023-04-25T07:32:26;7.37;;;5.30;;
15258;SDS011;34462;51.368;12.364;2023-04-25T07:34:54;7.30;;;5.53;;
15258;SDS011;34462;51.368;12.364;2023-04-25T07:37:23;6.17;;;5.20;;
15258;SDS011;34462;51.368;12.364;2023-04-25T07:39:51;7.60;;;5.67;;
15258;SDS011;34462;51.368;12.364;2023-04-25T07:42:20;13.00;;;6.13;;
15258;SDS011;34462;51.368;12.364;2023-04-25T07:44:48;8.20;;;5.40;;
15258;SDS011;34462;51.368;12.364;2023-04-25T07:47:17;9.27;;;6.27;;
15258;SDS011;34462;51.368;12.364;2023-04-25T07:49:46;7.03;;;5.90;;
15258;SDS011;34462;51.368;12.364;2023-04-25T07:52:15;7.93;;;5.77;;
15258;SDS011;34462;51.368;12.364;2023-04-25T07:54:43;8.97;;;5.83;;
15258;SDS011;34462;51.368;12.364;2023-04-25T07:57:11;7.63;;;5.60;;
15258;SDS011;34462;51.368;12.364;2023-04-25T07:59:41;6.70;;;5.17;;
15258;SDS011;34462;51.368;12.364;2023-04-25T08:02:10;7.37;;;4.90;;
15258;SDS011;34462;51.368;12.364;2023-04-25T08:04:38;7.17;;;4.30;;
15258;SDS011;34462;51.368;12.364;2023-04-25T08:07:06;8.37;;;3.70;;
15258;SDS011;34462;51.368;12.364;2023-04-25T08:09:35;5.17;;;3.37;;
15258;SDS011;34462;51.368;12.364;2023-04-25T08:12:04;6.97;;;3.03;;
15258;SDS011;34462;51.368;12.364;2023-04-25T08:14:32;5.97;;;2.50;;
15258;SDS011;34462;51.368;12.364;2023-04-25T08:17:05;7.90;;;2.40;;
15258;SDS011;34462;51.368;12.364;2023-04-25T08:19:33;4.23;;;2.10;;
15258;SDS011;34462;51.368;12.364;2023-04-25T08:22:01;5.50;;;2.20;;
15258;SDS011;34462;51.368;12.364;2023-04-25T08:24:29;3.87;;;2.23;;
15258;SDS011;34462;51.368;12.364;2023-04-25T08:26:57;4.93;;;2.13;;
15258;SDS011;34462;51.368;12.364;2023-04-25T08:29:26;5.80;;;2.53;;
15258;SDS011;34462;51.368;12.364;2023-04-25T08:31:54;4.83;;;2.33;;
15258;SDS011;34462;51.368;12.364;2023-04-25T08:34:24;5.77;;;2.00;;
15258;SDS011;34462;51.368;12.364;2023-04-25T08:36:52;5.03;;;2.33;;
15258;SDS011;34462;51.368;12.364;2023-04-25T08:39:20;5.00;;;2.50;;
15258;SDS011;34462;51.368;12.364;2023-04-25T08:41:48;7.17;;;2.60;;
15258;SDS011;34462;51.368;12.364;2023-04-25T08:44:18;6.57;;;2.80;;
15258;SDS011;34462;51.368;12.364;2023-04-25T08:46:49;6.37;;;2.50;;
15258;SDS011;34462;51.368;12.364;2023-04-25T08:49:19;7.27;;;2.50;;
15258;SDS011;34462;51.368;12.364;2023-04-25T08:51:49;4.27;;;2.23;;
15258;SDS011;34462;51.368;12.364;2023-04-25T08:54:23;5.17;;;2.27;;
15258;SDS011;34462;51.368;12.364;2023-04-25T08:57:01;6.67;;;2.30;;
15258;SDS011;34462;51.368;12.364;2023-04-25T08:59:31;5.53;;;2.70;;
15258;SDS011;34462;51.368;12.364;2023-04-25T09:02:03;5.27;;;2.43;;
15258;SDS011;34462;51.368;12.364;2023-04-25T09:04:31;4.73;;;2.30;;
15258;SDS011;34462;51.368;12.364;2023-04-25T09:07:00;7.17;;;3.03;;
15258;SDS011;34462;51.368;12.364;2023-04-25T09:09:29;8.60;;;2.63;;
15258;SDS011;34462;51.368;12.364;2023-04-25T09:11:58;7.07;;;3.10;;
15258;SDS011;34462;51.368;12.364;2023-04-25T09:14:27;6.03;;;2.57;;
15258;SDS011;34462;51.368;12.364;2023-04-25T09:17:02;8.97;;;3.07;;
15258;SDS011;34462;51.368;12.364;2023-04-25T09:19:34;5.40;;;2.70;;
15258;SDS011;34462;51.368;12.364;2023-04-25T09:22:08;6.37;;;2.40;;
15258;SDS011;34462;51.368;12.364;2023-04-25T09:24:37;9.07;;;2.80;;
15258;SDS011;34462;51.368;12.364;2023-04-25T09:27:08;5.27;;;2.73;;
15258;SDS011;34462;51.368;12.364;2023-04-25T09:29:38;11.57;;;3.40;;
15258;SDS011;34462;51.368;12.364;2023-04-25T09:32:12;7.33;;;2.83;;
15258;SDS011;34462;51.368;12.364;2023-04-25T09:34:46;8.87;;;3.67;;
15258;SDS011;34462;51.368;12.364;2023-04-25T09:37:18;9.57;;;3.40;;
15258;SDS011;34462;51.368;12.364;2023-04-25T09:39:48;7.93;;;3.40;;
15258;SDS011;34462;51.368;12.364;2023-04-25T09:42:18;8.60;;;3.33;;
15258;SDS011;34462;51.368;12.364;2023-04-25T09:44:51;11.03;;;3.53;;
15258;SDS011;34462;51.368;12.364;2023-04-25T09:47:22;11.70;;;3.60;;
15258;SDS011;34462;51.368;12.364;2023-04-25T09:49:53;6.87;;;3.33;;
15258;SDS011;34462;51.368;12.364;2023-04-25T09:52:24;12.27;;;3.07;;
15258;SDS011;34462;51.368;12.364;2023-04-25T09:54:52;8.10;;;3.33;;
15258;SDS011;34462;51.368;12.364;2023-04-25T09:57:21;6.80;;;2.93;;
15258;SDS011;34462;51.368;12.364;2023-04-25T09:59:51;8.83;;;3.83;;
15258;SDS011;34462;51.368;12.364;2023-04-25T10:02:22;8.97;;;3.37;;
15258;SDS011;34462;51.368;12.364;2023-04-25T10:04:52;8.40;;;3.60;;
15258;SDS011;34462;51.368;12.364;2023-04-25T10:07:24;8.17;;;4.30;;
15258;SDS011;34462;51.368;12.364;2023-04-25T10:09:58;8.27;;;4.70;;
15258;SDS011;34462;51.368;12.364;2023-04-25T10:12:30;8.80;;;4.67;;
15258;SDS011;34462;51.368;12.364;2023-04-25T10:15:00;9.37;;;4.83;;
15258;SDS011;34462;51.368;12.364;2023-04-25T10:17:30;13.97;;;5.10;;
15258;SDS011;34462;51.368;12.364;2023-04-25T10:20:01;11.87;;;4.90;;
15258;SDS011;34462;51.368;12.364;2023-04-25T10:22:35;9.07;;;4.73;;
15258;SDS011;34462;51.368;12.364;2023-04-25T10:25:08;10.40;;;5.13;;
15258;SDS011;34462;51.368;12.364;2023-04-25T10:27:38;10.20;;;4.60;;
15258;SDS011;34462;51.368;12.364;2023-04-25T10:30:07;10.67;;;5.30;;
15258;SDS011;34462;51.368;12.364;2023-04-25T10:32:38;10.60;;;5.23;;
15258;SDS011;34462;51.368;12.364;2023-04-25T10:35:12;11.67;;;5.40;;
15258;SDS011;34462;51.368;12.364;2023-04-25T10:37:57;10.83;;;5.10;;
15258;SDS011;34462;51.368;12.364;2023-04-25T10:40:31;10.00;;;5.40;;
15258;SDS011;34462;51.368;12.364;2023-04-25T10:46:13;10.43;;;5.30;;
15258;SDS011;34462;51.368;12.364;2023-04-25T10:48:46;8.70;;;5.40;;
15258;SDS011;34462;51.368;12.364;2023-04-25T10:51:17;12.57;;;5.80;;
15258;SDS011;34462;51.368;12.364;2023-04-25T10:53:59;9.80;;;5.00;;
15258;SDS011;34462;51.368;12.364;2023-04-25T10:56:30;10.07;;;5.47;;
15258;SDS011;34462;51.368;12.364;2023-04-25T10:59:03;11.93;;;5.90;;
15258;SDS011;34462;51.368;12.364;2023-04-25T11:01:38;10.20;;;4.80;;
15258;SDS011;34462;51.368;12.364;2023-04-25T11:04:19;12.40;;;5.70;;
15258;SDS011;34462;51.368;12.364;2023-04-25T11:06:53;11.73;;;5.20;;
15258;SDS011;34462;51.368;12.364;2023-04-25T11:09:35;11.87;;;5.40;;
15258;SDS011;34462;51.368;12.364;2023-04-25T11:12:07;10.37;;;5.37;;
15258;SDS011;34462;51.368;12.364;2023-04-25T11:14:38;6.57;;;4.83;;
15258;SDS011;34462;51.368;12.364;2023-04-25T11:17:11;9.37;;;5.53;;
15258;SDS011;34462;51.368;12.364;2023-04-25T11:19:39;10.70;;;5.27;;
15258;SDS011;34462;51.368;12.364;2023-04-25T11:22:08;9.57;;;5.53;;
15258;SDS011;34462;51.368;12.364;2023-04-25T11:24:39;11.17;;;5.37;;
15258;SDS011;34462;51.368;12.364;2023-04-25T11:27:07;8.77;;;4.73;;
15258;SDS011;34462;51.368;12.364;2023-04-25T11:29:36;11.87;;;4.60;;
15258;SDS011;34462;51.368;12.364;2023-04-25T11:32:04;7.43;;;3.87;;
15258;SDS011;34462;51.368;12.364;2023-04-25T11:34:32;10.00;;;3.90;;
15258;SDS011;34462;51.368;12.364;2023-04-25T11:37:01;14.50;;;3.63;;
15258;SDS011;34462;51.368;12.364;2023-04-25T11:39:31;9.87;;;3.60;;
15258;SDS011;34462;51.368;12.364;2023-04-25T11:42:00;9.07;;;3.10;;
15258;SDS011;34462;51.368;12.364;2023-04-25T11:44:39;7.53;;;3.03;;
15258;SDS011;34462;51.368;12.364;2023-04-25T11:47:07;6.57;;;3.17;;
15258;SDS011;34462;51.368;12.364;2023-04-25T11:49:36;6.33;;;3.10;;
15258;SDS011;34462;51.368;12.364;2023-04-25T11:52:05;4.87;;;2.90;;
15258;SDS011;34462;51.368;12.364;2023-04-25T11:54:35;8.47;;;2.93;;
15258;SDS011;34462;51.368;12.364;2023-04-25T11:57:05;6.77;;;3.00;;
15258;SDS011;34462;51.368;12.364;2023-04-25T11:59:33;7.80;;;2.93;;
15258;SDS011;34462;51.368;12.364;2023-04-25T12:02:01;6.33;;;2.80;;
15258;SDS011;34462;51.368;12.364;2023-04-25T12:04:30;9.67;;;3.23;;
15258;SDS011;34462;51.368;12.364;2023-04-25T12:06:59;8.10;;;2.77;;
15258;SDS011;34462;51.368;12.364;2023-04-25T12:09:29;7.87;;;3.30;;
15258;SDS011;34462;51.368;12.364;2023-04-25T12:12:00;5.73;;;2.80;;
15258;SDS011;34462;51.368;12.364;2023-04-25T12:14:31;7.73;;;2.60;;
15258;SDS011;34462;51.368;12.364;2023-04-25T12:17:02;6.50;;;2.87;;
15258;SDS011;34462;51.368;12.364;2023-04-25T12:19:34;8.63;;;2.17;;
15258;SDS011;34462;51.368;12.364;2023-04-25T12:22:18;4.30;;;1.90;;
15258;SDS011;34462;51.368;12.364;2023-04-25T12:24:48;4.27;;;2.30;;
15258;SDS011;34462;51.368;12.364;2023-04-25T12:27:19;7.65;;;2.80;;
15258;SDS011;34462;51.368;12.364;2023-04-25T12:29:53;8.37;;;2.50;;
15258;SDS011;34462;51.368;12.364;2023-04-25T12:32:22;7.60;;;2.80;;
15258;SDS011;34462;51.368;12.364;2023-04-25T12:34:51;8.10;;;3.10;;
15258;SDS011;34462;51.368;12.364;2023-04-25T12:37:19;8.77;;;2.70;;
15258;SDS011;34462;51.368;12.364;2023-04-25T12:39:47;8.17;;;2.67;;
15258;SDS011;34462;51.368;12.364;2023-04-25T12:42:15;4.93;;;2.63;;
15258;SDS011;34462;51.368;12.364;2023-04-25T12:44:43;4.00;;;2.00;;
15258;SDS011;34462;51.368;12.364;2023-04-25T12:47:14;7.57;;;2.80;;
15258;SDS011;34462;51.368;12.364;2023-04-25T12:49:42;7.70;;;2.10;;
15258;SDS011;34462;51.368;12.364;2023-04-25T12:52:10;5.50;;;2.20;;
15258;SDS011;34462;51.368;12.364;2023-04-25T12:54:38;6.70;;;2.07;;
15258;SDS011;34462;51.368;12.364;2023-04-25T12:57:06;4.20;;;2.00;;
15258;SDS011;34462;51.368;12.364;2023-04-25T12:59:34;7.03;;;1.87;;
15258;SDS011;34462;51.368;12.364;2023-04-25T13:02:02;4.27;;;1.87;;
15258;SDS011;34462;51.368;12.364;2023-04-25T13:04:32;3.53;;;1.70;;
15258;SDS011;34462;51.368;12.364;2023-04-25T13:07:00;5.80;;;1.80;;
15258;SDS011;34462;51.368;12.364;2023-04-25T13:09:28;5.30;;;1.80;;
15258;SDS011;34462;51.368;12.364;2023-04-25T13:11:56;5.70;;;1.80;;
15258;SDS011;34462;51.368;12.364;2023-04-25T13:14:25;4.33;;;2.00;;
15258;SDS011;34462;51.368;12.364;2023-04-25T13:16:53;5.77;;;1.73;;
15258;SDS011;34462;51.368;12.364;2023-04-25T13:19:21;4.50;;;1.73;;
15258;SDS011;34462;51.368;12.364;2023-04-25T13:21:50;4.97;;;1.77;;
15258;SDS011;34462;51.368;12.364;2023-04-25T13:24:18;4.97;;;1.80;;
15258;SDS011;34462;51.368;12.364;2023-04-25T13:26:46;7.03;;;2.40;;
15258;SDS011;34462;51.368;12.364;2023-04-25T13:29:15;6.03;;;1.70;;
15258;SDS011;34462;51.368;12.364;2023-04-25T13:31:43;5.43;;;1.90;;
15258;SDS011;34462;51.368;12.364;2023-04-25T13:34:11;6.53;;;1.97;;
15258;SDS011;34462;51.368;12.364;2023-04-25T13:36:39;4.60;;;1.80;;
15258;SDS011;34462;51.368;12.364;2023-04-25T13:39:08;5.10;;;1.77;;
15258;SDS011;34462;51.368;12.364;2023-04-25T13:41:38;5.73;;;1.97;;
15258;SDS011;34462;51.368;12.364;2023-04-25T13:44:06;4.13;;;1.80;;
15258;SDS011;34462;51.368;12.364;2023-04-25T13:46:34;3.73;;;1.87;;
15258;SDS011;34462;51.368;12.364;2023-04-25T13:49:12;5.47;;;1.80;;
15258;SDS011;34462;51.368;12.364;2023-04-25T13:51:40;6.10;;;2.07;;
15258;SDS011;34462;51.368;12.364;2023-04-25T13:54:10;8.67;;;2.10;;
15258;SDS011;34462;51.368;12.364;2023-04-25T13:56:38;3.57;;;1.80;;
15258;SDS011;34462;51.368;12.364;2023-04-25T13:59:08;8.03;;;1.90;;
15258;SDS011;34462;51.368;12.364;2023-04-25T14:01:36;6.17;;;1.70;;
15258;SDS011;34462;51.368;12.364;2023-04-25T14:04:05;5.03;;;1.60;;
15258;SDS011;34462;51.368;12.364;2023-04-25T14:06:33;5.83;;;1.93;;
15258;SDS011;34462;51.368;12.364;2023-04-25T14:09:02;5.93;;;1.80;;
15258;SDS011;34462;51.368;12.364;2023-04-25T14:11:34;6.37;;;1.97;;
15258;SDS011;34462;51.368;12.364;2023-04-25T14:14:02;4.55;;;1.60;;
15258;SDS011;34462;51.368;12.364;2023-04-25T14:16:30;3.30;;;1.50;;
15258;SDS011;34462;51.368;12.364;2023-04-25T14:18:58;3.73;;;1.67;;
15258;SDS011;34462;51.368;12.364;2023-04-25T14:21:27;3.90;;;1.70;;
15258;SDS011;34462;51.368;12.364;2023-04-25T14:23:57;4.47;;;1.73;;
15258;SDS011;34462;51.368;12.364;2023-04-25T14:26:25;4.03;;;2.17;;
15258;SDS011;34462;51.368;12.364;2023-04-25T14:28:55;3.00;;;1.53;;
15258;SDS011;34462;51.368;12.364;2023-04-25T14:31:23;4.43;;;1.70;;
15258;SDS011;34462;51.368;12.364;2023-04-25T14:33:51;3.73;;;1.63;;
15258;SDS011;34462;51.368;12.364;2023-04-25T14:36:22;4.83;;;2.07;;
15258;SDS011;34462;51.368;12.364;2023-04-25T14:38:52;4.30;;;2.10;;
15258;SDS011;34462;51.368;12.364;2023-04-25T14:41:20;4.53;;;1.77;;
15258;SDS011;34462;51.368;12.364;2023-04-25T14:43:49;3.53;;;2.30;;
15258;SDS011;34462;51.368;12.364;2023-04-25T14:46:19;3.33;;;1.80;;
15258;SDS011;34462;51.368;12.364;2023-04-25T14:48:49;4.93;;;2.00;;